Winchester, Texas
Current Conditions -  °F | °C
As of 3:10 AM on Friday 19 Dec 2014 (Local Time) from K3T5 Reporting Station
Thunderstorm Thunderstorm  
Wind Chill: 12°   Ceiling: 600
Heat Index: 12°   Visibility: 10mi
Dew Point: 12°   Wind: 8mph
Humidity: 97%   Direction: 350°N
Pressure: 30.01"   Gusts: NA
Location:  29.8569°N, 96.9311°W
Report Text: K3T5 190910Z AUTO 35007KT 10SM VCTSRA OVC006 12/12 A3001 RMK AO2 LTG DSNT N AND S T01210117
Loading
Personal Weather Stations






























Interactive Weather Map New forecast layout! Learn more

10-Day Weather Forecast

Advertisements
Track Severe Weather on mobile